Time;durP1;ratioP1;P1;durP2;ratioP2;P2;SDS_P1;SDS_P2;PMS_P1;PMS_P2;Temp;Humidity;BMP_temperature;BMP_pressure;BME280_temperature;BME280_humidity;BME280_pressure;Samples;Min_cycle;Max_cycle;Signal;HPM_P1;HPM_P2
2022/09/21 00:01:30;;;;;;;4.65;1.60;;;10.20;97.40;;;;;;4132733;28;20046;-82
2022/09/21 00:03:31;;;;;;;4.68;1.80;;;10.20;97.50;;;;;;4150440;28;20050;-82
2022/09/21 00:05:32;;;;;;;6.53;1.85;;;10.10;97.40;;;;;;4149396;28;20049;-82
2022/09/21 00:07:33;;;;;;;9.10;2.00;;;10.20;97.60;;;;;;4131832;28;20054;-82
2022/09/21 00:09:34;;;;;;;6.13;1.88;;;10.10;97.50;;;;;;4149283;28;20044;-82
2022/09/21 00:11:36;;;;;;;5.15;1.75;;;9.50;97.50;;;;;;4115802;28;20051;-82
2022/09/21 00:13:37;;;;;;;6.22;2.10;;;10.10;97.60;;;;;;4148003;28;20054;-82
2022/09/21 00:15:38;;;;;;;3.22;2.05;;;10.10;97.60;;;;;;4148832;28;20130;-82
2022/09/21 00:17:40;;;;;;;3.90;1.33;;;10.00;97.60;;;;;;4149582;28;20037;-82
2022/09/21 00:19:43;;;;;;;4.53;1.50;;;10.00;97.60;;;;;;4149359;28;20140;-82
2022/09/21 00:21:43;;;;;;;4.50;1.90;;;10.00;97.70;;;;;;4153653;28;20041;-82
2022/09/21 00:23:45;;;;;;;4.93;2.58;;;9.90;97.60;;;;;;4166212;28;20045;-82
2022/09/21 00:25:46;;;;;;;8.18;2.28;;;9.90;97.70;;;;;;4166051;28;20128;-82
2022/09/21 00:27:50;;;;;;;5.47;2.05;;;9.80;97.80;;;;;;4166280;28;20423;-82
2022/09/21 00:29:50;;;;;;;5.65;1.63;;;9.80;97.80;;;;;;4165862;28;20053;-82
2022/09/21 00:31:51;;;;;;;3.75;1.30;;;9.80;97.90;;;;;;4166495;28;20045;-82
2022/09/21 00:33:52;;;;;;;3.63;1.50;;;9.70;97.90;;;;;;4162238;28;20073;-82
2022/09/21 00:35:53;;;;;;;7.72;2.47;;;9.70;97.90;;;;;;4149446;28;20121;-82
2022/09/21 00:37:58;;;;;;;7.22;1.83;;;9.70;97.90;;;;;;4149479;28;20044;-82
2022/09/21 00:39:59;;;;;;;7.90;1.77;;;9.60;97.90;;;;;;4149446;28;20141;-82
2022/09/21 00:42:00;;;;;;;7.75;1.52;;;9.60;98.10;;;;;;4131910;28;20540;-82
2022/09/21 00:44:28;;;;;;;4.57;1.60;;;9.60;98.10;;;;;;4149640;28;20052;-82
2022/09/21 00:46:30;;;;;;;3.25;1.77;;;9.50;98.30;;;;;;4149389;28;20042;-82
2022/09/21 00:48:34;;;;;;;10.15;2.05;;;9.50;98.30;;;;;;4149317;28;20512;-82
2022/09/21 00:50:41;;;;;;;3.08;1.65;;;9.60;98.30;;;;;;4149526;28;20038;-82
2022/09/21 00:52:49;;;;;;;3.80;1.95;;;9.60;98.30;;;;;;4149133;28;20046;-82
2022/09/21 00:54:55;;;;;;;4.82;1.70;;;9.50;98.40;;;;;;4132366;28;20062;-82
2022/09/21 00:57:01;;;;;;;4.18;1.50;;;9.40;98.30;;;;;;4149576;28;20511;-81
2022/09/21 00:59:04;;;;;;;6.07;1.73;;;9.40;98.20;;;;;;4131629;28;20081;-82
2022/09/21 01:01:05;;;;;;;7.53;2.58;;;9.40;98.30;;;;;;4131692;28;20039;-82
2022/09/21 01:03:07;;;;;;;8.13;2.13;;;9.40;98.30;;;;;;4130730;28;20149;-82
2022/09/21 01:05:09;;;;;;;6.70;1.85;;;9.40;98.30;;;;;;4131478;28;20054;-82
2022/09/21 01:07:14;;;;;;;5.82;2.00;;;9.40;98.50;;;;;;4148024;28;20389;-82
2022/09/21 01:09:17;;;;;;;8.07;2.10;;;9.40;98.70;;;;;;4148526;28;20408;-82
2022/09/21 01:11:52;;;;;;;10.15;2.10;;;9.40;98.80;;;;;;4159431;28;20053;-82
2022/09/21 01:14:01;;;;;;;5.25;2.10;;;9.40;98.90;;;;;;4164985;28;20041;-82
2022/09/21 01:16:04;;;;;;;;;;;9.40;98.80;;;;;;4147180;28;20057;-82
2022/09/21 01:18:13;;;;;;;8.07;2.17;;;9.30;99.60;;;;;;4147064;28;19928;-82
2022/09/21 01:20:14;;;;;;;;;;;9.30;98.80;;;;;;4165175;28;20092;-82
2022/09/21 01:22:40;;;;;;;4.82;2.05;;;9.30;99.30;;;;;;4164940;28;19920;-82
2022/09/21 01:24:49;;;;;;;4.10;1.55;;;9.20;98.70;;;;;;4147908;28;20121;-81
2022/09/21 01:26:56;;;;;;;7.10;1.80;;;9.20;98.70;;;;;;4164688;28;20531;-82
2022/09/21 01:29:00;;;;;;;8.02;2.97;;;9.20;98.70;;;;;;4147672;28;20050;-82
2022/09/21 01:31:06;;;;;;;5.95;1.77;;;9.20;98.70;;;;;;4147936;28;20049;-82
2022/09/21 01:33:26;;;;;;;5.93;1.73;;;9.20;98.80;;;;;;4165186;28;20429;-82
2022/09/21 01:35:32;;;;;;;5.85;1.85;;;9.20;99.10;;;;;;4165354;28;20440;-82
2022/09/21 01:37:44;;;;;;;4.93;1.60;;;9.20;99.10;;;;;;4147206;28;20136;-81
2022/09/21 01:39:50;;;;;;;4.13;1.80;;;9.20;99.10;;;;;;4164938;28;20124;-82
2022/09/21 01:41:52;;;;;;;7.80;2.45;;;9.20;99.10;;;;;;4165238;28;20045;-82
2022/09/21 01:43:56;;;;;;;7.72;1.98;;;9.10;99.00;;;;;;4165072;28;20049;-82
2022/09/21 01:46:00;;;;;;;7.10;2.00;;;9.20;99.20;;;;;;4165215;28;20049;-82
2022/09/21 01:48:02;;;;;;;5.55;2.30;;;9.20;99.30;;;;;;4147589;28;20515;-82
2022/09/21 01:50:08;;;;;;;7.45;2.15;;;9.20;99.40;;;;;;4147372;28;20507;-82
2022/09/21 01:52:18;;;;;;;8.95;2.72;;;9.20;99.40;;;;;;4164109;28;20099;-81
2022/09/21 01:54:22;;;;;;;4.47;2.08;;;9.10;99.40;;;;;;4164965;28;20495;-82
2022/09/21 01:56:29;;;;;;;6.32;2.30;;;9.10;99.50;;;;;;4165159;28;20506;-82
2022/09/21 01:58:40;;;;;;;7.38;2.25;;;9.10;99.60;;;;;;4164395;28;20057;-82
2022/09/21 02:00:44;;;;;;;4.45;2.03;;;9.10;99.60;;;;;;4147029;28;20057;-82
2022/09/21 02:02:58;;;;;;;3.60;2.10;;;9.10;99.70;;;;;;4147056;28;20050;-82
2022/09/21 02:05:02;;;;;;;5.53;2.63;;;9.10;99.80;;;;;;4164851;28;20084;-82
2022/09/21 02:07:04;;;;;;;6.07;1.95;;;9.10;99.80;;;;;;4164313;28;20053;-82
2022/09/21 02:09:05;;;;;;;7.47;2.28;;;9.10;99.90;;;;;;4147424;28;20060;-82
2022/09/21 02:11:06;;;;;;;7.75;2.40;;;9.10;99.90;;;;;;4137221;28;20082;-82
2022/09/21 02:13:08;;;;;;;9.68;2.47;;;9.10;99.90;;;;;;4147959;28;20541;-82
2022/09/21 02:15:09;;;;;;;5.43;1.98;;;9.10;99.90;;;;;;4130416;28;20412;-82
2022/09/21 02:17:47;;;;;;;7.75;2.33;;;9.10;99.90;;;;;;4147811;28;20085;-82
2022/09/21 02:20:08;;;;;;;7.25;2.50;;;9.10;99.90;;;;;;4130119;28;20410;-82
2022/09/21 02:22:15;;;;;;;4.35;2.20;;;9.00;99.90;;;;;;4146911;28;20050;-82
2022/09/21 02:24:22;;;;;;;6.40;2.72;;;9.00;99.90;;;;;;4148026;28;20054;-82
2022/09/21 02:26:32;;;;;;;7.85;2.40;;;9.20;99.90;;;;;;4147598;28;20060;-82
2022/09/21 02:28:44;;;;;;;4.60;2.05;;;9.00;99.90;;;;;;4147128;28;20037;-82
2022/09/21 02:30:59;;;;;;;3.65;2.25;;;9.00;99.90;;;;;;4147013;28;20053;-82
2022/09/21 02:33:25;;;;;;;4.85;2.20;;;9.00;99.90;;;;;;4145825;28;20137;-82
2022/09/21 02:35:44;;;;;;;4.97;2.28;;;8.90;99.90;;;;;;4147084;28;20042;-82
2022/09/21 02:37:54;;;;;;;5.85;2.40;;;8.90;99.90;;;;;;4146978;28;20065;-82
2022/09/21 02:40:29;;;;;;;8.00;2.42;;;8.80;99.90;;;;;;4146625;28;20049;-82
2022/09/21 02:42:35;;;;;;;4.20;1.70;;;8.80;99.90;;;;;;4117154;28;20464;-82
2022/09/21 02:44:41;;;;;;;7.47;2.40;;;8.70;99.90;;;;;;4147456;28;20141;-82
2022/09/21 02:47:01;;;;;;;4.75;2.33;;;8.70;99.90;;;;;;4147186;28;20042;-82
2022/09/21 02:49:11;;;;;;;5.75;2.28;;;8.70;99.90;;;;;;4147974;28;20046;-82
2022/09/21 02:51:38;;;;;;;6.15;2.90;;;8.70;99.90;;;;;;4130439;28;20054;-82
2022/09/21 02:53:41;;;;;;;11.27;2.33;;;8.60;99.90;;;;;;4148084;28;20510;-82
2022/09/21 02:55:44;;;;;;;6.07;2.15;;;8.60;99.90;;;;;;4130183;28;20061;-82
2022/09/21 02:57:46;;;;;;;7.97;2.65;;;8.60;99.90;;;;;;4147742;28;20092;-82
2022/09/21 02:59:48;;;;;;;6.90;2.83;;;8.60;99.90;;;;;;4130429;28;20130;-82
2022/09/21 03:01:50;;;;;;;5.05;2.30;;;8.60;99.90;;;;;;4148112;28;20188;-82
2022/09/21 03:03:50;;;;;;;8.52;2.67;;;8.60;99.90;;;;;;4130891;28;20061;-82
2022/09/21 03:05:53;;;;;;;5.35;2.10;;;8.60;99.90;;;;;;4147236;28;20042;-81
2022/09/21 03:07:54;;;;;;;5.88;2.60;;;8.60;99.90;;;;;;4147418;28;20548;-81
2022/09/21 03:09:55;;;;;;;3.88;2.03;;;8.50;99.90;;;;;;4147765;28;20045;-82
2022/09/21 03:11:55;;;;;;;7.50;2.25;;;8.50;99.90;;;;;;4147956;28;20095;-82
2022/09/21 03:13:56;;;;;;;4.65;2.13;;;8.40;99.90;;;;;;4147714;28;20114;-82
2022/09/21 03:16:02;;;;;;;3.90;2.08;;;7.60;99.90;;;;;;4147774;28;20085;-82
2022/09/21 03:18:10;;;;;;;6.35;2.03;;;8.40;99.90;;;;;;4130310;28;20042;-82
2022/09/21 03:20:11;;;;;;;4.63;2.75;;;8.40;99.90;;;;;;4147802;28;20038;-82
2022/09/21 03:22:12;;;;;;;7.20;2.28;;;8.40;99.90;;;;;;4147196;28;20052;-82
2022/09/21 03:24:12;;;;;;;6.10;2.00;;;8.40;99.90;;;;;;4147351;28;20492;-82
2022/09/21 03:26:13;;;;;;;6.45;2.40;;;8.30;99.90;;;;;;4147984;28;20164;-82
2022/09/21 03:28:15;;;;;;;10.00;2.17;;;8.30;99.90;;;;;;4150786;28;20129;-82
2022/09/21 03:30:16;;;;;;;5.93;1.80;;;8.30;99.90;;;;;;4150383;28;20408;-82
2022/09/21 03:32:16;;;;;;;3.28;1.92;;;8.30;99.90;;;;;;4150785;28;20050;-82
2022/09/21 03:34:19;;;;;;;6.25;2.00;;;8.30;99.90;;;;;;4150475;28;20046;-82
2022/09/21 03:36:19;;;;;;;5.28;2.15;;;8.30;99.90;;;;;;4162152;28;20042;-82
2022/09/21 03:38:20;;;;;;;4.78;2.25;;;8.30;99.90;;;;;;4167030;28;20076;-82
2022/09/21 03:40:22;;;;;;;4.20;1.85;;;8.20;99.90;;;;;;4149125;28;20132;-82
2022/09/21 03:42:22;;;;;;;4.47;2.28;;;8.20;99.90;;;;;;4149600;28;20404;-82
2022/09/21 03:44:25;;;;;;;7.00;1.83;;;8.20;99.90;;;;;;4166086;28;20038;-82
2022/09/21 03:46:26;;;;;;;12.10;2.10;;;8.20;99.90;;;;;;4166652;28;20071;-82
2022/09/21 03:48:27;;;;;;;8.50;2.72;;;8.20;99.90;;;;;;4149466;28;20053;-82
2022/09/21 03:50:28;;;;;;;4.30;2.10;;;8.20;99.90;;;;;;4166938;28;20037;-82
2022/09/21 03:52:30;;;;;;;6.45;2.08;;;8.20;99.90;;;;;;4166429;28;20038;-82
2022/09/21 03:54:30;;;;;;;4.15;2.10;;;8.20;99.90;;;;;;4148910;28;20049;-82
2022/09/21 03:56:33;;;;;;;6.22;2.05;;;8.20;99.90;;;;;;4166462;28;20048;-82
2022/09/21 03:58:34;;;;;;;7.32;2.03;;;8.20;99.90;;;;;;4148546;28;20046;-82
2022/09/21 04:00:36;;;;;;;5.25;1.90;;;8.20;99.90;;;;;;4166454;28;20048;-82
2022/09/21 04:02:40;;;;;;;2.97;1.90;;;8.20;99.90;;;;;;4166097;28;20053;-82
2022/09/21 04:04:41;;;;;;;4.07;1.67;;;8.20;99.90;;;;;;4166395;28;20045;-82
2022/09/21 04:06:45;;;;;;;2.97;1.92;;;8.10;99.90;;;;;;4166267;28;20045;-82
2022/09/21 04:08:48;;;;;;;7.43;2.00;;;8.20;99.90;;;;;;4166365;28;20049;-82
2022/09/21 04:10:50;;;;;;;6.93;2.75;;;8.20;99.90;;;;;;4148198;28;20439;-82
2022/09/21 04:12:50;;;;;;;5.85;2.20;;;8.10;99.90;;;;;;4165521;28;20050;-82
2022/09/21 04:14:51;;;;;;;5.65;1.80;;;8.10;99.90;;;;;;4165959;28;20158;-82
2022/09/21 04:16:52;;;;;;;6.25;2.25;;;8.10;99.90;;;;;;4148336;28;20050;-82
2022/09/21 04:18:53;;;;;;;4.45;2.00;;;8.10;99.90;;;;;;4165771;28;20411;-83
2022/09/21 04:20:54;;;;;;;7.90;1.90;;;8.10;99.90;;;;;;4148367;28;20511;-83
2022/09/21 04:22:55;;;;;;;6.30;1.92;;;8.10;99.90;;;;;;4165598;28;20057;-83
2022/09/21 04:24:55;;;;;;;5.60;2.22;;;8.10;99.90;;;;;;4166013;28;20095;-83
2022/09/21 04:26:56;;;;;;;5.78;2.10;;;8.10;99.90;;;;;;4165602;28;20048;-83
2022/09/21 04:28:59;;;;;;;6.65;1.98;;;8.10;99.90;;;;;;4165720;28;20103;-83
2022/09/21 04:30:59;;;;;;;5.93;2.08;;;8.00;99.90;;;;;;4166228;28;20117;-82
2022/09/21 04:33:00;;;;;;;5.03;2.67;;;8.10;99.90;;;;;;4166959;28;20487;-82
2022/09/21 04:35:01;;;;;;;4.65;1.75;;;8.00;99.90;;;;;;4165846;28;20045;-82
2022/09/21 04:37:02;;;;;;;5.32;1.60;;;8.00;99.90;;;;;;4132699;28;20077;-81
2022/09/21 04:39:04;;;;;;;5.35;2.15;;;8.00;99.90;;;;;;4164137;28;20045;-81
2022/09/21 04:41:05;;;;;;;7.40;2.00;;;8.00;99.90;;;;;;4149032;28;20440;-82
2022/09/21 04:43:06;;;;;;;6.43;1.60;;;7.90;99.90;;;;;;4166364;28;20048;-81
2022/09/21 04:45:08;;;;;;;6.10;1.60;;;7.90;99.90;;;;;;4165298;28;20124;-82
2022/09/21 04:47:08;;;;;;;4.40;1.42;;;7.90;99.90;;;;;;4164462;28;20053;-81
2022/09/21 04:49:09;;;;;;;4.13;1.63;;;7.90;99.90;;;;;;4165277;28;20068;-81
2022/09/21 04:51:11;;;;;;;3.97;1.63;;;7.90;99.90;;;;;;4147777;28;20100;-82
2022/09/21 04:53:12;;;;;;;3.55;1.73;;;7.90;99.90;;;;;;4165001;28;20052;-81
2022/09/21 04:55:13;;;;;;;7.78;2.10;;;7.90;99.90;;;;;;4165318;28;20044;-81
2022/09/21 04:57:14;;;;;;;6.57;2.45;;;7.80;99.90;;;;;;4165349;28;20038;-81
2022/09/21 04:59:15;;;;;;;5.05;1.90;;;7.80;99.90;;;;;;4163046;28;20046;-81
2022/09/21 05:01:16;;;;;;;6.15;1.70;;;7.80;99.90;;;;;;4148401;28;20057;-81
2022/09/21 05:03:18;;;;;;;7.05;1.83;;;7.80;99.90;;;;;;4149065;28;20044;-81
2022/09/21 05:05:18;;;;;;;4.28;2.00;;;7.80;99.90;;;;;;4151268;28;20041;-81
2022/09/21 05:07:19;;;;;;;6.65;2.67;;;7.80;99.90;;;;;;4164088;28;20531;-81
2022/09/21 05:11:39;;;;;;;;;;;7.80;99.90;;;;;;4149702;28;20050;-81
2022/09/21 05:13:41;;;;;;;6.35;2.00;;;7.80;99.90;;;;;;4131492;28;20012;-81
2022/09/21 05:15:42;;;;;;;10.70;2.20;;;7.70;99.90;;;;;;4131935;28;20524;-81
2022/09/21 05:17:43;;;;;;;4.25;1.58;;;7.80;99.90;;;;;;4152688;28;20033;-81
2022/09/21 05:19:44;;;;;;;10.70;1.98;;;7.80;99.90;;;;;;4141981;28;20125;-81
2022/09/21 05:21:45;;;;;;;6.38;1.95;;;7.80;99.90;;;;;;4148009;28;20038;-80
2022/09/21 05:23:46;;;;;;;7.13;1.92;;;7.80;99.90;;;;;;4149099;28;20052;-83
2022/09/21 05:25:46;;;;;;;6.45;2.08;;;7.80;99.90;;;;;;4148178;28;20432;-81
2022/09/21 05:27:47;;;;;;;4.57;1.63;;;7.80;99.90;;;;;;4149553;28;20046;-81
2022/09/21 05:29:48;;;;;;;5.15;1.55;;;7.80;99.90;;;;;;4149019;28;20041;-81
2022/09/21 05:32:16;;;;;;;2.63;1.05;;;7.90;99.90;;;;;;4138428;28;20049;-80
2022/09/21 05:34:36;;;;;;;4.60;1.60;;;7.80;99.90;;;;;;4132663;28;20046;-81
2022/09/21 05:37:20;;;;;;;2.65;1.20;;;7.70;99.90;;;;;;4115274;28;20414;-81
2022/09/21 05:39:21;;;;;;;3.20;1.40;;;7.70;99.90;;;;;;4130159;28;20476;-81
2022/09/21 05:41:22;;;;;;;5.55;2.55;;;7.70;99.90;;;;;;4130441;28;20164;-81
2022/09/21 05:43:27;;;;;;;4.72;1.60;;;7.60;99.90;;;;;;4115274;28;20059;-81
2022/09/21 05:45:29;;;;;;;3.42;1.38;;;7.60;99.90;;;;;;4149194;28;20734;-81
2022/09/21 05:47:43;;;;;;;3.05;1.48;;;7.60;99.90;;;;;;4149422;28;20046;-81
2022/09/21 05:49:57;;;;;;;4.80;1.50;;;7.60;99.90;;;;;;4148926;28;20088;-81
2022/09/21 05:52:03;;;;;;;8.32;2.53;;;7.60;99.90;;;;;;4149612;28;20447;-81
2022/09/21 05:54:09;;;;;;;3.40;1.70;;;7.70;99.90;;;;;;4148888;28;20084;-82
2022/09/21 05:56:22;;;;;;;3.60;1.92;;;7.60;99.90;;;;;;4148786;28;20393;-81
2022/09/21 05:58:46;;;;;;;4.88;2.25;;;7.70;99.90;;;;;;4147768;28;20045;-81
2022/09/21 06:01:01;;;;;;;5.88;2.35;;;7.70;99.90;;;;;;4148576;28;20594;-82
2022/09/21 06:03:33;;;;;;;7.57;2.45;;;7.80;99.90;;;;;;4148534;28;20050;-82
2022/09/21 06:05:35;;;;;;;6.65;2.60;;;7.80;99.90;;;;;;4131764;28;20568;-82
2022/09/21 06:07:35;;;;;;;7.72;3.03;;;7.90;99.90;;;;;;4148276;28;20049;-82
2022/09/21 06:09:36;;;;;;;7.70;2.88;;;7.90;99.90;;;;;;4148307;28;20415;-82
2022/09/21 06:11:37;;;;;;;6.53;2.28;;;7.90;99.90;;;;;;4130676;28;20053;-82
2022/09/21 06:13:39;;;;;;;7.30;2.85;;;7.90;99.90;;;;;;4148728;28;20176;-81
2022/09/21 06:15:41;;;;;;;6.25;2.58;;;8.00;99.90;;;;;;4148413;28;20046;-82
2022/09/21 06:17:42;;;;;;;7.45;2.50;;;8.10;99.90;;;;;;4148274;28;20046;-82
2022/09/21 06:19:43;;;;;;;8.10;2.38;;;8.10;99.90;;;;;;4148407;28;20038;-82
2022/09/21 06:21:44;;;;;;;5.03;2.40;;;8.10;99.90;;;;;;4148247;28;20042;-82
2022/09/21 06:23:46;;;;;;;6.07;3.10;;;8.20;99.90;;;;;;4130757;28;20133;-81
2022/09/21 06:25:51;;;;;;;7.95;3.10;;;8.20;99.90;;;;;;4148358;28;20057;-82
2022/09/21 06:27:52;;;;;;;4.72;2.78;;;8.30;99.90;;;;;;4131396;28;20044;-82
2022/09/21 06:29:52;;;;;;;8.70;3.28;;;8.40;99.90;;;;;;4148708;28;20518;-81
2022/09/21 06:31:53;;;;;;;10.93;3.55;;;8.30;99.90;;;;;;4148938;28;20042;-82
2022/09/21 06:33:54;;;;;;;8.18;3.22;;;8.40;99.90;;;;;;4148946;28;20073;-82
2022/09/21 06:35:57;;;;;;;8.07;3.40;;;8.40;99.90;;;;;;4131255;28;20054;-81
2022/09/21 06:37:59;;;;;;;9.93;3.15;;;8.40;99.90;;;;;;4148077;28;20097;-82
2022/09/21 06:40:00;;;;;;;6.65;2.65;;;8.40;99.90;;;;;;4148559;28;20092;-81
2022/09/21 06:42:03;;;;;;;7.32;3.15;;;8.40;99.90;;;;;;4148257;28;20050;-82
2022/09/21 06:44:04;;;;;;;6.63;3.30;;;8.50;99.90;;;;;;4130458;28;20050;-82
2022/09/21 06:46:05;;;;;;;4.95;2.53;;;8.50;99.90;;;;;;4147478;28;20423;-82
2022/09/21 06:48:05;;;;;;;7.72;2.78;;;8.50;99.90;;;;;;4147755;28;20042;-82
2022/09/21 06:50:06;;;;;;;8.30;2.53;;;8.70;99.90;;;;;;4130421;28;20092;-81
2022/09/21 06:52:11;;;;;;;9.63;2.80;;;8.70;99.90;;;;;;4146937;28;20042;-82
2022/09/21 06:54:11;;;;;;;6.55;2.40;;;8.80;99.90;;;;;;4147945;28;20048;-82
2022/09/21 06:56:12;;;;;;;8.93;2.35;;;8.90;99.90;;;;;;4129936;28;20121;-81
2022/09/21 06:58:13;;;;;;;9.07;3.42;;;9.00;99.90;;;;;;4147442;28;20046;-82
2022/09/21 07:00:14;;;;;;;6.40;2.30;;;9.20;99.90;;;;;;4147985;28;20038;-82
2022/09/21 07:02:15;;;;;;;11.68;2.75;;;9.30;99.90;;;;;;4150424;28;20049;-82
2022/09/21 07:04:16;;;;;;;6.35;2.00;;;9.40;99.90;;;;;;4150070;28;20045;-82
2022/09/21 07:06:17;;;;;;;7.45;2.20;;;9.50;99.90;;;;;;4151159;28;20061;-82
2022/09/21 07:08:18;;;;;;;5.22;1.90;;;9.60;99.90;;;;;;4150639;28;20128;-82
2022/09/21 07:10:18;;;;;;;13.75;2.50;;;9.70;99.90;;;;;;4151366;28;20045;-80
2022/09/21 07:12:19;;;;;;;10.18;2.65;;;9.80;99.90;;;;;;4150750;28;20049;-80
2022/09/21 07:14:22;;;;;;;7.60;2.22;;;9.90;99.90;;;;;;4150718;28;20081;-81
2022/09/21 07:16:23;;;;;;;10.82;2.00;;;10.00;99.90;;;;;;4132349;28;20444;-81
2022/09/21 07:18:24;;;;;;;10.02;2.10;;;10.10;99.90;;;;;;4133339;28;20057;-80
2022/09/21 07:20:24;;;;;;;7.50;1.67;;;10.20;99.90;;;;;;4150268;28;20125;-81
2022/09/21 07:22:27;;;;;;;4.85;1.80;;;10.30;99.90;;;;;;4132640;28;20054;-80
2022/09/21 07:24:28;;;;;;;6.65;2.33;;;10.30;99.90;;;;;;4149023;28;20053;-81
2022/09/21 07:26:29;;;;;;;8.52;1.38;;;10.40;99.90;;;;;;4132219;28;20109;-82
2022/09/21 07:28:31;;;;;;;12.20;1.67;;;10.60;99.90;;;;;;4149593;28;20046;-82
2022/09/21 07:30:31;;;;;;;11.38;2.13;;;10.70;99.90;;;;;;4148894;28;20400;-83
2022/09/21 07:32:32;;;;;;;5.15;1.67;;;11.20;99.90;;;;;;4121194;28;20043;-82
2022/09/21 07:34:36;;;;;;;6.15;1.67;;;12.00;99.90;;;;;;4140593;28;20165;-83
2022/09/21 07:36:36;;;;;;;6.15;1.30;;;12.80;99.90;;;;;;4150711;28;20045;-83
2022/09/21 07:38:38;;;;;;;6.70;1.20;;;13.60;99.90;;;;;;4149897;28;20038;-83
2022/09/21 07:40:40;;;;;;;4.97;0.85;;;14.50;98.90;;;;;;4131718;28;20081;-83
2022/09/21 07:42:41;;;;;;;6.72;1.80;;;15.10;97.70;;;;;;4132642;28;20056;-83
2022/09/21 07:44:41;;;;;;;3.90;1.35;;;15.60;96.70;;;;;;4149582;28;20132;-84
2022/09/21 07:46:42;;;;;;;4.65;0.95;;;16.00;95.80;;;;;;4149892;28;20042;-84
2022/09/21 07:48:43;;;;;;;7.55;1.10;;;16.50;95.20;;;;;;4149432;28;20053;-83
2022/09/21 07:50:43;;;;;;;5.88;1.00;;;17.00;94.40;;;;;;4149970;28;20073;-83
2022/09/21 07:52:44;;;;;;;3.90;0.70;;;17.30;93.70;;;;;;4150593;28;20041;-84
2022/09/21 07:54:45;;;;;;;8.40;0.90;;;17.50;93.30;;;;;;4150180;28;20125;-83
2022/09/21 07:59:04;;;;;;;6.97;0.98;;;17.80;93.10;;;;;;4150365;28;20048;-84
2022/09/21 07:59:06;;;;;;;3.08;0.60;;;18.10;92.80;;;;;;4151004;28;20058;-83
2022/09/21 08:01:07;;;;;;;5.45;1.25;;;18.60;92.60;;;;;;4150462;28;20084;-83
2022/09/21 08:03:08;;;;;;;3.92;0.80;;;19.00;92.30;;;;;;4151275;28;20038;-83
2022/09/21 08:05:08;;;;;;;6.05;1.10;;;19.50;91.80;;;;;;4151234;28;20504;-84
2022/09/21 08:07:09;;;;;;;8.15;0.80;;;20.00;91.50;;;;;;4151301;28;20134;-83
2022/09/21 08:09:10;;;;;;;3.83;0.63;;;20.40;91.20;;;;;;4150411;28;20038;-83
2022/09/21 08:11:10;;;;;;;4.65;1.35;;;20.80;90.60;;;;;;4133239;28;20089;-83
2022/09/21 08:13:11;;;;;;;6.57;0.77;;;20.80;89.80;;;;;;4150253;28;20057;-83
2022/09/21 08:15:13;;;;;;;2.75;0.43;;;21.00;89.80;;;;;;4149585;28;20514;-83
2022/09/21 08:17:14;;;;;;;2.72;0.70;;;21.20;89.90;;;;;;4149659;28;20125;-83
2022/09/21 08:19:19;;;;;;;3.42;0.60;;;;;;;;;;4149009;28;20049;-83
2022/09/21 08:21:21;;;;;;;3.13;0.40;;;;;;;;;;4131410;28;20046;-83
2022/09/21 08:23:22;;;;;;;3.38;0.90;;;;;;;;;;4149288;28;20128;-83
2022/09/21 08:25:23;;;;;;;7.38;0.93;;;;;;;;;;4149338;28;20050;-83
2022/09/21 08:27:24;;;;;;;5.15;0.93;;;;;;;;;;4149255;28;20060;-83
2022/09/21 08:29:26;;;;;;;5.15;0.70;;;;;;;;;;4147970;28;20108;-83
2022/09/21 08:31:27;;;;;;;3.08;0.73;;;;;;;;;;4132723;28;20054;-83
2022/09/21 08:33:29;;;;;;;5.50;0.73;;;21.30;89.70;;;;;;4150249;28;20053;-83
2022/09/21 08:35:29;;;;;;;3.10;0.70;;;23.20;84.30;;;;;;4150209;28;20046;-83
2022/09/21 08:37:30;;;;;;;4.35;0.65;;;23.30;83.40;;;;;;4149197;28;20107;-83
2022/09/21 08:39:31;;;;;;;8.43;0.50;;;23.40;83.00;;;;;;4149944;28;20046;-83
2022/09/21 08:41:57;;;;;;;3.60;0.55;;;23.70;82.70;;;;;;4148888;28;20155;-82
2022/09/21 08:44:12;;;;;;;4.32;0.65;;;24.10;79.20;;;;;;4150146;28;20050;-84
2022/09/21 08:46:18;;;;;;;4.75;0.68;;;24.50;78.90;;;;;;4150231;28;20100;-84
2022/09/21 08:48:21;;;;;;;2.92;1.20;;;;;;;;;;4150521;28;20053;-84
2022/09/21 08:50:23;;;;;;;4.03;0.90;;;;;;;;;;4150590;28;20046;-84
2022/09/21 08:52:25;;;;;;;7.70;0.90;;;24.80;79.10;;;;;;4149685;28;20484;-83
2022/09/21 08:54:31;;;;;;;2.85;0.47;;;25.50;76.90;;;;;;4150069;28;20515;-83
2022/09/21 08:56:33;;;;;;;5.78;1.05;;;25.70;74.50;;;;;;4150513;28;20041;-83
2022/09/21 08:58:37;;;;;;;2.97;0.50;;;25.80;74.30;;;;;;4148234;28;20135;-83
2022/09/21 09:00:39;;;;;;;4.25;0.60;;;26.00;72.80;;;;;;4150075;28;20813;-83
2022/09/21 09:03:07;;;;;;;9.07;1.15;;;26.20;72.00;;;;;;4151128;28;20088;-83
2022/09/21 09:05:27;;;;;;;3.58;0.65;;;26.20;66.60;;;;;;4132597;28;20436;-83
2022/09/21 09:07:40;;;;;;;2.55;0.88;;;25.70;65.90;;;;;;4149671;28;20042;-82
2022/09/21 09:10:03;;;;;;;5.18;0.52;;;25.80;67.60;;;;;;4148694;28;20399;-84
2022/09/21 09:12:36;;;;;;;6.93;0.50;;;26.00;66.00;;;;;;4149946;28;20053;-84
2022/09/21 09:14:47;;;;;;;1.60;0.38;;;26.10;63.40;;;;;;4150032;28;20084;-84
2022/09/21 09:16:47;;;;;;;5.50;0.52;;;26.50;65.00;;;;;;4149429;28;20042;-84
2022/09/21 09:18:51;;;;;;;3.13;0.50;;;26.50;66.00;;;;;;4132086;28;20547;-85
2022/09/21 09:21:01;;;;;;;4.75;0.50;;;26.70;64.80;;;;;;4149471;28;20100;-83
2022/09/21 09:23:06;;;;;;;4.15;0.60;;;26.80;63.40;;;;;;4149678;28;20515;-84
2022/09/21 09:25:20;;;;;;;5.43;0.68;;;26.80;63.00;;;;;;4147873;28;20531;-84
2022/09/21 09:27:32;;;;;;;3.30;0.75;;;26.50;58.30;;;;;;4149308;28;20050;-83
2022/09/21 09:29:51;;;;;;;4.30;0.95;;;26.10;57.10;;;;;;4149555;28;20449;-83
2022/09/21 09:31:53;;;;;;;4.82;0.45;;;25.60;60.10;;;;;;4149273;28;20404;-84
2022/09/21 09:34:17;;;;;;;3.70;0.80;;;25.70;61.90;;;;;;4149595;28;20085;-83
2022/09/21 09:36:18;;;;;;;4.75;0.50;;;26.10;58.90;;;;;;4132339;28;20050;-84
2022/09/21 09:38:23;;;;;;;3.97;0.38;;;26.20;61.20;;;;;;4150757;28;20042;-84
2022/09/21 09:40:41;;;;;;;3.28;0.52;;;26.50;59.90;;;;;;4148653;28;20049;-84
2022/09/21 09:43:04;;;;;;;2.97;0.60;;;26.50;58.30;;;;;;4148608;28;20045;-84
2022/09/21 09:45:35;;;;;;;3.75;1.17;;;26.50;58.20;;;;;;4128626;28;20619;-84
2022/09/21 09:47:53;;;;;;;5.10;0.77;;;26.50;58.50;;;;;;4148179;28;20037;-85
2022/09/21 09:50:09;;;;;;;2.20;0.60;;;26.60;57.40;;;;;;4148285;28;20345;-84
2022/09/21 09:52:12;;;;;;;2.53;0.68;;;26.00;56.50;;;;;;4152192;28;20046;-84
2022/09/21 09:54:16;;;;;;;2.08;0.50;;;25.70;59.30;;;;;;4148172;28;20042;-85
2022/09/21 09:56:18;;;;;;;3.67;0.57;;;25.50;59.40;;;;;;4147769;28;20133;-84
2022/09/21 09:58:36;;;;;;;4.40;0.82;;;25.20;59.80;;;;;;4130144;28;20054;-84
2022/09/21 10:00:38;;;;;;;5.97;0.68;;;25.10;58.40;;;;;;4137801;28;20038;-84
2022/09/21 10:02:48;;;;;;;4.18;0.70;;;25.20;59.40;;;;;;4148126;28;20519;-84
2022/09/21 10:05:07;;;;;;;3.58;0.50;;;24.90;56.30;;;;;;4147576;28;20423;-84
2022/09/21 10:07:17;;;;;;;1.88;0.32;;;24.10;56.70;;;;;;4130405;28;20113;-85
2022/09/21 10:09:32;;;;;;;3.85;0.50;;;23.10;57.50;;;;;;4147147;28;20038;-84
2022/09/21 10:11:36;;;;;;;4.75;0.70;;;22.70;58.90;;;;;;4147168;28;20076;-84
2022/09/21 10:13:42;;;;;;;5.65;0.50;;;22.40;61.10;;;;;;4129761;28;20125;-84
2022/09/21 10:15:49;;;;;;;1.90;0.68;;;22.50;60.70;;;;;;4147491;28;20054;-84
2022/09/21 10:18:17;;;;;;;8.02;0.60;;;22.90;61.30;;;;;;4126171;28;20109;-83
2022/09/21 10:20:21;;;;;;;2.05;0.30;;;23.40;60.50;;;;;;4136005;28;20057;-83
2022/09/21 10:22:21;;;;;;;2.28;0.45;;;24.00;60.80;;;;;;4147350;28;20166;-83
2022/09/21 10:24:35;;;;;;;1.23;0.40;;;24.50;60.40;;;;;;4147927;28;20046;-83
2022/09/21 10:26:46;;;;;;;3.75;0.40;;;24.90;59.20;;;;;;4129686;28;20047;-84
2022/09/21 10:28:55;;;;;;;5.68;0.75;;;25.10;57.70;;;;;;4148790;28;20104;-84
2022/09/21 10:31:10;;;;;;;;;;;25.30;56.80;;;;;;4152767;28;20034;-83
2022/09/21 10:33:21;;;;;;;1.00;0.40;;;25.50;56.90;;;;;;4146892;28;19918;-84
2022/09/21 10:35:22;;;;;;;4.07;0.45;;;25.60;56.50;;;;;;4147609;28;20081;-84
2022/09/21 10:37:29;;;;;;;0.63;0.30;;;26.10;58.20;;;;;;4132179;28;20042;-85
2022/09/21 10:39:32;;;;;;;2.70;0.90;;;26.50;57.70;;;;;;4133042;28;20050;-82
2022/09/21 10:41:36;;;;;;;4.07;0.40;;;26.90;57.40;;;;;;4150544;28;20080;-84
2022/09/21 10:43:43;;;;;;;4.63;0.50;;;27.40;55.70;;;;;;4151030;28;20049;-84
2022/09/21 10:45:53;;;;;;;3.75;0.40;;;27.50;55.00;;;;;;4150689;28;20061;-84
2022/09/21 10:48:15;;;;;;;8.90;0.65;;;27.80;53.60;;;;;;4149452;28;20049;-83
2022/09/21 10:50:22;;;;;;;1.33;0.50;;;28.00;54.50;;;;;;4141415;28;20197;-83
2022/09/21 10:52:31;;;;;;;1.75;0.32;;;28.20;53.80;;;;;;4151606;28;20046;-83
2022/09/21 10:54:33;;;;;;;1.20;0.43;;;28.20;53.30;;;;;;4151343;28;20558;-83
2022/09/21 10:56:35;;;;;;;3.42;0.60;;;28.00;53.40;;;;;;4151442;28;20042;-84
2022/09/21 10:58:38;;;;;;;3.67;0.47;;;27.80;53.90;;;;;;4151867;28;20480;-83
2022/09/21 11:00:51;;;;;;;4.88;0.63;;;27.40;53.00;;;;;;4133662;28;20050;-83
2022/09/21 11:02:54;;;;;;;8.27;0.60;;;26.90;52.30;;;;;;4151563;28;20052;-83
2022/09/21 11:05:33;;;;;;;7.53;0.85;;;27.10;54.80;;;;;;4151385;28;20050;-83